Bellerose Manor, New York
Current Conditions -  °F | °C
As of 1:51 AM on Saturday 29 Nov 2014 (Local Time) from KJFK Reporting Station
Broken Clouds Broken Clouds  
Wind Chill: 28°   Ceiling: 25000
Heat Index: 28°   Visibility: 10mi
Dew Point: 11°   Wind: 3mph
Humidity: 49%   Direction: 330°NNW
Pressure: 30.32"   Gusts: NA
Location:  40.7212°N, 73.7418°W
Report Text: KJFK 290651Z 33003KT 10SM FEW100 SCT190 BKN250 M02/M12 A3032 RMK AO2 SLP266 T10221117
Loading
Personal Weather Stations






























Interactive Weather Map New forecast layout! Learn more

10-Day Weather Forecast

Advertisements
Track Severe Weather on mobile